METAR Data
IDs: Format: Raw Decoded Include TAF

Data at: 0109 UTC 06 Dec 2019

TISX 060053Z 01004KT 10SM CLR 26/23 A3005 RMK AO2 SLP173 T02560228
TISX 052353Z 36004KT 10SM FEW023 SCT033 26/23 A3003 RMK AO2 SLP167 T02610228 10306 20261 53018
TISX 052253Z 05005KT 10SM SCT022 27/23 A3001 RMK AO2 SLP160 T02720233
TISX 052153Z 10006KT 10SM FEW023 28/23 A2999 RMK AO2 SLP154 T02780228
TISX 052139Z 11006KT 10SM SCT024 28/23 A2998 RMK AO2 T02830228
TISX 052115Z 10008KT 10SM SCT022 BKN028 28/23 A2998 RMK AO2 T02830233
TISX 052053Z 10007KT 10SM FEW020 29/23 A2998 RMK AO2 SLP149 T02890233 55001
TISX 051953Z 10010KT 10SM FEW021 29/23 A2997 RMK AO2 SLP146 T02940233
TISX 051853Z 11010KT 10SM SCT025 29/23 A2997 RMK AO2 SLP146 T02940233
TISX 051753Z 11011KT 10SM CLR 31/23 A2998 RMK AO2 SLP150 T03060233 10311 20283 58023
TISX 051653Z 12010KT 10SM CLR 30/23 A3000 RMK AO2 SLP157 T03000233
TISX 051553Z 12011KT 10SM SCT032 31/23 A3003 RMK AO2 SLP167 T03060233
TISX 051453Z 11012KT 10SM SCT030 31/23 A3005 RMK AO2 SLP173 T03110233 50008
TISX 051353Z 10013KT 10SM FEW023 SCT034 30/23 A3005 RMK AO2 SLP175 T03000233
TISX 051253Z 10010KT 10SM FEW024 SCT032 29/23 A3005 RMK AO2 SLP174 T02940233
TISX 051153Z 10009KT 10SM FEW020 SCT029 28/23 A3002 RMK AO2 SLP165 T02830233 10283 20250 53024
TISX 051053Z 09009KT 10SM FEW018 SCT029 27/23 A3000 RMK AO2 SLP157 T02720233
TISX 050953Z AUTO 11009KT 10SM FEW022 27/23 A2997 RMK AO2 SLP147 T02720228
TISX 050853Z AUTO 10010KT 10SM FEW021 27/23 A2995 RMK AO2 SLP141 T02720228 55008
TISX 050846Z AUTO 10010KT 10SM SCT021 27/23 A2995 RMK AO2 T02670233
TISX 050838Z AUTO 09007KT 10SM BKN022 27/23 A2995 RMK AO2 T02670228
TISX 050753Z AUTO 10009KT 10SM SCT024 SCT030 27/23 A2995 RMK AO2 SLP141 T02670228
TISX 050653Z AUTO 10010KT 10SM SCT021 SCT028 BKN034 27/23 A2995 RMK AO2 SLP140 T02670228
TISX 050633Z AUTO 06005KT 10SM BKN020 26/23 A2996 RMK AO2 T02560228
TISX 050553Z AUTO 02004KT 10SM SCT022 SCT030 25/23 A2998 RMK AO2 SLP149 T02500228 10256 20244 58013
TISX 050453Z AUTO 01004KT 10SM FEW030 25/23 A3000 RMK AO2 SLP157 T02500228
TISX 050353Z AUTO 03005KT 10SM FEW055 FEW080 26/23 A3001 RMK AO2 SLP159 T02560228 403110239
TISX 050253Z AUTO 05005KT 10SM FEW050 SCT070 26/23 A3002 RMK AO2 SLP162 T02560228 51012
TISX 050153Z 03004KT 10SM CLR 25/22 A3001 RMK AO2 SLP160 T02500222
TISX 050053Z 02004KT 10SM SCT027 26/22 A3001 RMK AO2 SLP159 T02560222
TISX 042353Z 01005KT 10SM FEW024 26/23 A2998 RMK AO2 SLP150 T02560228 10311 20256 53008
TISX 042253Z 10007KT 10SM CLR 27/23 A2996 RMK AO2 SLP145 T02720228
TISX 042153Z 10007KT 10SM CLR 28/23 A2995 RMK AO2 SLP141 T02780228
TISX 042053Z 10008KT 10SM FEW023 29/23 A2996 RMK AO2 SLP142 T02890233 53000
TISX 042000Z 11008KT 10SM SCT020 SCT026 29/23 A2995 RMK AO2 T02890233
TISX 041953Z 11009KT 10SM BKN019 29/24 A2995 RMK AO2 SLP140 T02940239
TISX 041853Z 12011KT 10SM CLR 30/23 A2994 RMK AO2 SLP138 T03000233
TISX 041753Z 12012KT 10SM SCT027 SCT038 31/23 A2995 RMK AO2 SLP142 T03060233 10311 20250 58022
TISX 041653Z 11010KT 10SM FEW020 31/24 A2998 RMK AO2 SLP149 T03060239
TISX 041553Z 11009KT 10SM SCT030 31/23 A3000 RMK AO2 SLP157 T03060233
TISX 041453Z 12011KT 10SM SCT024 30/24 A3002 RMK AO2 SLP164 T03000239 50008
TISX 041353Z 10005KT 10SM SCT020 BKN050 28/24 A3002 RMK AO2 SLP164 T02830244
TISX 041332Z 12005KT 10SM SCT020 BKN050 28/24 A3002 RMK AO2 T02780239